Schedule Details


Flight Number: CTN418
Departure: Cilipi (LDDU) at 07:25
Arrival: Frankfurt/main (EDDF) at 09:30
Route: AMUGO UL611 UVODI UL862 SABAD DCT PIKIT DCT SUBEN UQ162 PSA

Weather Information
LDDU 242200Z 04013KT 360V070 CAVOK 26/14 Q1016
EDDF 242150Z 07005KT CAVOK 23/16 Q1019 NOSIG
Schedule Frequency

Route Map